sensor_id;sensor_type;location;lat;lon;timestamp;pressure;altitude;pressure_sealevel;temperature;humidity
64362;BME280;50685;53.346;-6.296;2023-03-23T00:01:10;98642.78;;;7.29;73.24
64362;BME280;50685;53.346;-6.296;2023-03-23T00:03:58;98647.84;;;7.35;72.77
64362;BME280;50685;53.346;-6.296;2023-03-23T00:06:50;98654.69;;;7.40;72.52
64362;BME280;50685;53.346;-6.296;2023-03-23T00:09:33;98643.09;;;7.45;72.47
64362;BME280;50685;53.346;-6.296;2023-03-23T00:12:19;98657.78;;;7.53;71.89
64362;BME280;50685;53.346;-6.296;2023-03-23T00:14:45;98646.03;;;7.62;71.46
64362;BME280;50685;53.346;-6.296;2023-03-23T00:17:30;98648.53;;;7.65;71.22
64362;BME280;50685;53.346;-6.296;2023-03-23T00:25:55;98649.13;;;7.74;72.12
64362;BME280;50685;53.346;-6.296;2023-03-23T00:37:23;98653.81;;;7.65;72.64
64362;BME280;50685;53.346;-6.296;2023-03-23T00:46:13;98653.59;;;7.71;72.88
64362;BME280;50685;53.346;-6.296;2023-03-23T00:48:41;98658.84;;;7.73;72.73
64362;BME280;50685;53.346;-6.296;2023-03-23T00:54:21;98665.56;;;7.82;72.23
64362;BME280;50685;53.346;-6.296;2023-03-23T00:56:55;98648.81;;;7.83;72.64
64362;BME280;50685;53.346;-6.296;2023-03-23T01:03:09;98653.97;;;7.86;72.65
64362;BME280;50685;53.346;-6.296;2023-03-23T01:43:14;98685.56;;;7.10;82.28
64362;BME280;50685;53.346;-6.296;2023-03-23T01:45:45;98687.69;;;6.99;82.42
64362;BME280;50685;53.346;-6.296;2023-03-23T01:50:55;98671.44;;;6.86;83.40
64362;BME280;50685;53.346;-6.296;2023-03-23T01:53:23;98672.50;;;6.80;83.64
64362;BME280;50685;53.346;-6.296;2023-03-23T01:55:51;98673.41;;;6.79;83.68
64362;BME280;50685;53.346;-6.296;2023-03-23T01:58:21;98660.28;;;6.78;84.79
64362;BME280;50685;53.346;-6.296;2023-03-23T02:00:50;98660.34;;;6.76;85.50
64362;BME280;50685;53.346;-6.296;2023-03-23T02:03:16;98663.00;;;6.74;86.20
64362;BME280;50685;53.346;-6.296;2023-03-23T02:05:42;98663.00;;;6.74;86.92
64362;BME280;50685;53.346;-6.296;2023-03-23T02:11:00;98663.88;;;6.75;87.93
64362;BME280;50685;53.346;-6.296;2023-03-23T02:13:26;98654.31;;;6.72;88.27
64362;BME280;50685;53.346;-6.296;2023-03-23T02:36:39;98630.53;;;6.74;89.48
64362;BME280;50685;53.346;-6.296;2023-03-23T02:39:32;98623.41;;;6.78;89.28
64362;BME280;50685;53.346;-6.296;2023-03-23T02:41:58;98618.88;;;6.81;89.07
64362;BME280;50685;53.346;-6.296;2023-03-23T02:44:32;98625.81;;;6.84;89.07
64362;BME280;50685;53.346;-6.296;2023-03-23T02:46:59;98609.91;;;6.87;88.78
64362;BME280;50685;53.346;-6.296;2023-03-23T02:49:28;98610.63;;;6.92;89.07
64362;BME280;50685;53.346;-6.296;2023-03-23T02:52:07;98613.97;;;6.97;88.74
64362;BME280;50685;53.346;-6.296;2023-03-23T02:54:44;98612.03;;;7.02;88.63
64362;BME280;50685;53.346;-6.296;2023-03-23T02:57:24;98602.31;;;7.04;88.77
64362;BME280;50685;53.346;-6.296;2023-03-23T02:59:58;98611.94;;;7.05;88.30
64362;BME280;50685;53.346;-6.296;2023-03-23T03:02:28;98619.66;;;7.12;88.10
64362;BME280;50685;53.346;-6.296;2023-03-23T03:05:00;98615.06;;;7.17;88.17
64362;BME280;50685;53.346;-6.296;2023-03-23T03:07:33;98606.13;;;7.21;88.00
64362;BME280;50685;53.346;-6.296;2023-03-23T03:10:24;98619.22;;;7.24;88.26
64362;BME280;50685;53.346;-6.296;2023-03-23T03:15:31;98604.25;;;7.24;89.04
64362;BME280;50685;53.346;-6.296;2023-03-23T03:18:00;98617.50;;;7.23;90.11
64362;BME280;50685;53.346;-6.296;2023-03-23T03:20:38;98602.69;;;7.19;90.22
64362;BME280;50685;53.346;-6.296;2023-03-23T03:23:07;98591.56;;;7.11;90.49
64362;BME280;50685;53.346;-6.296;2023-03-23T03:25:38;98600.25;;;7.13;91.26
64362;BME280;50685;53.346;-6.296;2023-03-23T03:31:10;98588.09;;;7.08;91.38
64362;BME280;50685;53.346;-6.296;2023-03-23T03:33:41;98574.09;;;7.06;92.20
64362;BME280;50685;53.346;-6.296;2023-03-23T03:36:06;98584.78;;;7.03;92.42
64362;BME280;50685;53.346;-6.296;2023-03-23T03:38:49;98569.88;;;7.02;92.28
64362;BME280;50685;53.346;-6.296;2023-03-23T03:41:20;98567.31;;;6.99;92.88
64362;BME280;50685;53.346;-6.296;2023-03-23T03:43:45;98558.63;;;6.97;92.53
64362;BME280;50685;53.346;-6.296;2023-03-23T03:46:20;98549.91;;;6.95;92.30
64362;BME280;50685;53.346;-6.296;2023-03-23T03:49:09;98539.50;;;6.92;91.89
64362;BME280;50685;53.346;-6.296;2023-03-23T03:51:37;98523.69;;;6.92;92.50
64362;BME280;50685;53.346;-6.296;2023-03-23T03:54:10;98524.69;;;6.88;92.62
64362;BME280;50685;53.346;-6.296;2023-03-23T03:56:39;98522.25;;;6.82;92.76
64362;BME280;50685;53.346;-6.296;2023-03-23T03:59:08;98519.00;;;6.73;91.83
64362;BME280;50685;53.346;-6.296;2023-03-23T04:01:34;98511.31;;;6.67;91.53
64362;BME280;50685;53.346;-6.296;2023-03-23T04:04:00;98506.19;;;6.64;91.41
64362;BME280;50685;53.346;-6.296;2023-03-23T04:06:35;98502.72;;;6.62;91.13
64362;BME280;50685;53.346;-6.296;2023-03-23T04:09:05;98493.16;;;6.59;90.50
64362;BME280;50685;53.346;-6.296;2023-03-23T04:11:31;98493.22;;;6.58;90.51
64362;BME280;50685;53.346;-6.296;2023-03-23T04:13:57;98504.56;;;6.60;90.49
64362;BME280;50685;53.346;-6.296;2023-03-23T04:16:27;98503.75;;;6.58;90.16
64362;BME280;50685;53.346;-6.296;2023-03-23T04:18:57;98503.75;;;6.58;90.25
64362;BME280;50685;53.346;-6.296;2023-03-23T04:21:24;98495.84;;;6.58;90.16
64362;BME280;50685;53.346;-6.296;2023-03-23T04:23:54;98508.91;;;6.61;89.75
64362;BME280;50685;53.346;-6.296;2023-03-23T04:26:19;98507.84;;;6.67;89.85
64362;BME280;50685;53.346;-6.296;2023-03-23T04:28:45;98490.22;;;6.69;89.46
64362;BME280;50685;53.346;-6.296;2023-03-23T04:31:23;98513.88;;;6.70;89.48
64362;BME280;50685;53.346;-6.296;2023-03-23T04:33:54;98499.84;;;6.70;89.59
64362;BME280;50685;53.346;-6.296;2023-03-23T04:36:20;98510.22;;;6.74;89.66
64362;BME280;50685;53.346;-6.296;2023-03-23T04:39:04;98501.25;;;6.80;89.52
64362;BME280;50685;53.346;-6.296;2023-03-23T04:41:37;98497.63;;;6.83;89.43
64362;BME280;50685;53.346;-6.296;2023-03-23T04:44:06;98500.22;;;6.84;89.38
64362;BME280;50685;53.346;-6.296;2023-03-23T04:46:32;98496.59;;;6.87;88.95
64362;BME280;50685;53.346;-6.296;2023-03-23T04:48:58;98492.06;;;6.92;88.96
64362;BME280;50685;53.346;-6.296;2023-03-23T04:51:29;98494.50;;;6.97;88.71
64362;BME280;50685;53.346;-6.296;2023-03-23T04:53:56;98499.69;;;7.00;88.27
64362;BME280;50685;53.346;-6.296;2023-03-23T04:56:24;98479.22;;;7.06;87.37
64362;BME280;50685;53.346;-6.296;2023-03-23T04:58:50;98493.22;;;7.08;87.52
64362;BME280;50685;53.346;-6.296;2023-03-23T05:01:24;98505.50;;;7.10;87.28
64362;BME280;50685;53.346;-6.296;2023-03-23T05:03:52;98493.28;;;7.07;87.58
64362;BME280;50685;53.346;-6.296;2023-03-23T05:06:23;98494.13;;;7.07;87.58
64362;BME280;50685;53.346;-6.296;2023-03-23T05:11:50;98511.81;;;7.04;87.51
64362;BME280;50685;53.346;-6.296;2023-03-23T05:14:19;98488.16;;;7.02;87.68
64362;BME280;50685;53.346;-6.296;2023-03-23T05:16:44;98502.25;;;7.01;88.09
64362;BME280;50685;53.346;-6.296;2023-03-23T05:19:13;98479.44;;;7.00;87.79
64362;BME280;50685;53.346;-6.296;2023-03-23T05:21:46;98503.22;;;6.99;87.96
64362;BME280;50685;53.346;-6.296;2023-03-23T05:24:11;98505.06;;;6.97;88.19
64362;BME280;50685;53.346;-6.296;2023-03-23T05:26:37;98500.75;;;6.94;88.12
64362;BME280;50685;53.346;-6.296;2023-03-23T05:29:03;98505.22;;;6.92;88.26
64362;BME280;50685;53.346;-6.296;2023-03-23T05:31:28;98505.22;;;6.92;88.31
64362;BME280;50685;53.346;-6.296;2023-03-23T05:36:25;98489.25;;;6.97;88.08
64362;BME280;50685;53.346;-6.296;2023-03-23T05:38:59;98508.56;;;6.97;88.13
64362;BME280;50685;53.346;-6.296;2023-03-23T05:41:28;98510.22;;;7.00;88.12
64362;BME280;50685;53.346;-6.296;2023-03-23T05:44:03;98504.03;;;7.01;88.35
64362;BME280;50685;53.346;-6.296;2023-03-23T05:46:28;98505.81;;;7.00;88.31
64362;BME280;50685;53.346;-6.296;2023-03-23T05:48:54;98512.81;;;7.01;88.37
64362;BME280;50685;53.346;-6.296;2023-03-23T05:51:19;98516.25;;;7.03;88.31
64362;BME280;50685;53.346;-6.296;2023-03-23T05:53:53;98530.34;;;7.02;88.73
64362;BME280;50685;53.346;-6.296;2023-03-23T05:56:19;98513.56;;;7.05;88.67
64362;BME280;50685;53.346;-6.296;2023-03-23T05:58:49;98507.44;;;7.04;88.55
64362;BME280;50685;53.346;-6.296;2023-03-23T06:01:20;98515.28;;;7.06;88.09
64362;BME280;50685;53.346;-6.296;2023-03-23T06:03:48;98513.56;;;7.05;88.08
64362;BME280;50685;53.346;-6.296;2023-03-23T06:06:16;98510.00;;;7.06;87.28
64362;BME280;50685;53.346;-6.296;2023-03-23T06:08:41;98495.97;;;7.05;86.56
64362;BME280;50685;53.346;-6.296;2023-03-23T06:11:07;98501.13;;;7.08;85.85
64362;BME280;50685;53.346;-6.296;2023-03-23T06:13:35;98492.25;;;7.11;85.51
64362;BME280;50685;53.346;-6.296;2023-03-23T06:16:01;98486.81;;;7.16;85.22
64362;BME280;50685;53.346;-6.296;2023-03-23T06:18:27;98495.56;;;7.16;84.84
64362;BME280;50685;53.346;-6.296;2023-03-23T06:20:59;98505.28;;;7.16;84.69
64362;BME280;50685;53.346;-6.296;2023-03-23T06:23:30;98498.97;;;7.20;84.62
64362;BME280;50685;53.346;-6.296;2023-03-23T06:25:59;98493.69;;;7.20;84.95
64362;BME280;50685;53.346;-6.296;2023-03-23T06:28:25;98481.47;;;7.17;85.40
64362;BME280;50685;53.346;-6.296;2023-03-23T06:31:02;98490.31;;;7.16;85.80
64362;BME280;50685;53.346;-6.296;2023-03-23T06:33:42;98494.72;;;7.16;86.08
64362;BME280;50685;53.346;-6.296;2023-03-23T06:39:17;98487.66;;;7.16;86.74
64362;BME280;50685;53.346;-6.296;2023-03-23T06:41:46;98479.75;;;7.16;86.56
64362;BME280;50685;53.346;-6.296;2023-03-23T06:44:14;98507.84;;;7.17;86.73
64362;BME280;50685;53.346;-6.296;2023-03-23T06:47:00;98495.34;;;7.22;86.08
64362;BME280;50685;53.346;-6.296;2023-03-23T06:52:17;98514.53;;;7.28;85.67
64362;BME280;50685;53.346;-6.296;2023-03-23T06:54:45;98508.06;;;7.35;84.31
64362;BME280;50685;53.346;-6.296;2023-03-23T06:57:13;98506.19;;;7.38;84.25
64362;BME280;50685;53.346;-6.296;2023-03-23T06:59:57;98513.84;;;7.46;83.11
64362;BME280;50685;53.346;-6.296;2023-03-23T07:02:23;98525.16;;;7.48;83.49
64362;BME280;50685;53.346;-6.296;2023-03-23T07:04:48;98520.78;;;7.49;83.23
64362;BME280;50685;53.346;-6.296;2023-03-23T07:07:19;98525.00;;;7.53;82.81
64362;BME280;50685;53.346;-6.296;2023-03-23T07:09:45;98528.31;;;7.58;83.07
64362;BME280;50685;53.346;-6.296;2023-03-23T07:12:33;98522.78;;;7.66;83.01
64362;BME280;50685;53.346;-6.296;2023-03-23T07:15:12;98518.81;;;7.78;82.78
64362;BME280;50685;53.346;-6.296;2023-03-23T07:17:57;98520.97;;;8.12;82.83
64362;BME280;50685;53.346;-6.296;2023-03-23T07:23:39;98535.19;;;8.54;80.86
64362;BME280;50685;53.346;-6.296;2023-03-23T07:29:10;98547.88;;;8.89;79.57
64362;BME280;50685;53.346;-6.296;2023-03-23T07:32:02;98540.91;;;9.07;79.64
64362;BME280;50685;53.346;-6.296;2023-03-23T07:34:32;98533.13;;;9.24;79.06
64362;BME280;50685;53.346;-6.296;2023-03-23T07:40:14;98548.97;;;9.45;76.61
64362;BME280;50685;53.346;-6.296;2023-03-23T07:43:00;98545.56;;;9.62;77.14
64362;BME280;50685;53.346;-6.296;2023-03-23T07:48:59;98549.13;;;9.61;75.48
64362;BME280;50685;53.346;-6.296;2023-03-23T07:51:38;98548.13;;;9.63;75.61
64362;BME280;50685;53.346;-6.296;2023-03-23T07:54:12;98549.38;;;9.56;76.66
64362;BME280;50685;53.346;-6.296;2023-03-23T07:59:43;98550.44;;;9.90;74.39
64362;BME280;50685;53.346;-6.296;2023-03-23T08:02:09;98555.44;;;9.96;74.73
64362;BME280;50685;53.346;-6.296;2023-03-23T08:04:35;98560.47;;;10.22;74.46
64362;BME280;50685;53.346;-6.296;2023-03-23T08:07:03;98552.78;;;10.54;72.80
64362;BME280;50685;53.346;-6.296;2023-03-23T08:09:29;98549.78;;;10.79;71.86
64362;BME280;50685;53.346;-6.296;2023-03-23T08:11:54;98552.66;;;10.92;71.63
64362;BME280;50685;53.346;-6.296;2023-03-23T08:14:20;98553.78;;;10.88;71.16
64362;BME280;50685;53.346;-6.296;2023-03-23T08:16:46;98547.25;;;10.58;71.11
64362;BME280;50685;53.346;-6.296;2023-03-23T08:19:11;98560.72;;;10.35;70.97
64362;BME280;50685;53.346;-6.296;2023-03-23T08:21:37;98556.75;;;10.07;71.91
64362;BME280;50685;53.346;-6.296;2023-03-23T08:24:02;98551.59;;;9.85;72.94
64362;BME280;50685;53.346;-6.296;2023-03-23T08:26:27;98548.00;;;9.67;73.50
64362;BME280;50685;53.346;-6.296;2023-03-23T08:28:53;98555.56;;;9.55;73.91
64362;BME280;50685;53.346;-6.296;2023-03-23T08:31:18;98564.06;;;10.02;73.27
64362;BME280;50685;53.346;-6.296;2023-03-23T08:33:43;98564.00;;;10.59;71.45
64362;BME280;50685;53.346;-6.296;2023-03-23T08:36:09;98555.16;;;11.13;69.28
64362;BME280;50685;53.346;-6.296;2023-03-23T08:38:34;98546.25;;;11.65;67.17
64362;BME280;50685;53.346;-6.296;2023-03-23T08:41:02;98550.81;;;11.96;67.59
64362;BME280;50685;53.346;-6.296;2023-03-23T08:43:29;98534.63;;;12.01;66.18
64362;BME280;50685;53.346;-6.296;2023-03-23T08:45:55;98533.50;;;12.05;65.41
64362;BME280;50685;53.346;-6.296;2023-03-23T08:48:20;98529.06;;;11.88;65.92
64362;BME280;50685;53.346;-6.296;2023-03-23T08:50:46;98534.69;;;11.66;65.61
64362;BME280;50685;53.346;-6.296;2023-03-23T08:53:12;98535.53;;;11.50;67.64
64362;BME280;50685;53.346;-6.296;2023-03-23T08:55:37;98542.22;;;11.57;67.81
64362;BME280;50685;53.346;-6.296;2023-03-23T08:58:05;98542.94;;;11.93;65.80
64362;BME280;50685;53.346;-6.296;2023-03-23T09:00:33;98540.41;;;12.56;64.61
64362;BME280;50685;53.346;-6.296;2023-03-23T09:02:59;98550.63;;;12.94;61.90
64362;BME280;50685;53.346;-6.296;2023-03-23T09:05:25;98557.81;;;13.22;61.46
64362;BME280;50685;53.346;-6.296;2023-03-23T09:07:52;98538.00;;;13.42;59.87
64362;BME280;50685;53.346;-6.296;2023-03-23T09:10:19;98542.38;;;13.58;58.31
64362;BME280;50685;53.346;-6.296;2023-03-23T09:12:45;98542.00;;;13.78;56.48
64362;BME280;50685;53.346;-6.296;2023-03-23T09:15:13;98559.88;;;14.20;56.76
64362;BME280;50685;53.346;-6.296;2023-03-23T09:17:44;98543.47;;;14.53;55.33
64362;BME280;50685;53.346;-6.296;2023-03-23T09:20:17;98543.25;;;14.98;56.16
64362;BME280;50685;53.346;-6.296;2023-03-23T09:22:46;98546.56;;;15.27;53.75
64362;BME280;50685;53.346;-6.296;2023-03-23T09:25:12;98546.38;;;15.43;51.51
64362;BME280;50685;53.346;-6.296;2023-03-23T09:27:38;98551.50;;;15.72;52.71
64362;BME280;50685;53.346;-6.296;2023-03-23T09:30:09;98558.03;;;15.94;50.19
64362;BME280;50685;53.346;-6.296;2023-03-23T09:32:37;98554.13;;;16.24;51.47
64362;BME280;50685;53.346;-6.296;2023-03-23T09:35:02;98554.59;;;15.79;50.36
64362;BME280;50685;53.346;-6.296;2023-03-23T09:37:28;98564.66;;;14.97;51.63
64362;BME280;50685;53.346;-6.296;2023-03-23T09:39:54;98564.59;;;14.29;53.77
64362;BME280;50685;53.346;-6.296;2023-03-23T09:50:52;98551.19;;;15.90;50.23
64362;BME280;50685;53.346;-6.296;2023-03-23T09:53:22;98559.94;;;15.79;49.99
64362;BME280;50685;53.346;-6.296;2023-03-23T09:55:49;98556.53;;;15.64;50.06
64362;BME280;50685;53.346;-6.296;2023-03-23T10:01:01;98550.47;;;15.88;49.02
64362;BME280;50685;53.346;-6.296;2023-03-23T10:03:36;98575.50;;;16.24;48.05
64362;BME280;50685;53.346;-6.296;2023-03-23T10:06:10;98549.03;;;16.69;47.35
64362;BME280;50685;53.346;-6.296;2023-03-23T10:08:37;98554.00;;;17.23;47.68
64362;BME280;50685;53.346;-6.296;2023-03-23T10:11:13;98555.56;;;17.83;46.90
64362;BME280;50685;53.346;-6.296;2023-03-23T10:16:50;98562.03;;;18.26;43.30
64362;BME280;50685;53.346;-6.296;2023-03-23T10:19:25;98553.25;;;18.24;43.82
64362;BME280;50685;53.346;-6.296;2023-03-23T10:21:54;98552.16;;;18.16;43.17
64362;BME280;50685;53.346;-6.296;2023-03-23T10:24:25;98548.75;;;18.02;43.44
64362;BME280;50685;53.346;-6.296;2023-03-23T10:29:37;98561.34;;;17.43;44.19
64362;BME280;50685;53.346;-6.296;2023-03-23T10:34:40;98602.06;;;17.13;44.16
64362;BME280;50685;53.346;-6.296;2023-03-23T10:37:19;98556.25;;;16.80;44.67
64362;BME280;50685;53.346;-6.296;2023-03-23T10:39:51;98565.53;;;16.88;45.63
64362;BME280;50685;53.346;-6.296;2023-03-23T10:42:35;98560.72;;;17.28;45.46
64362;BME280;50685;53.346;-6.296;2023-03-23T10:45:21;98574.59;;;17.22;44.03
64362;BME280;50685;53.346;-6.296;2023-03-23T10:47:49;98567.19;;;17.37;44.82
64362;BME280;50685;53.346;-6.296;2023-03-23T10:50:37;98567.38;;;17.23;43.97
64362;BME280;50685;53.346;-6.296;2023-03-23T10:53:03;98564.78;;;16.85;44.47
64362;BME280;50685;53.346;-6.296;2023-03-23T10:55:37;98561.72;;;17.03;45.31
64362;BME280;50685;53.346;-6.296;2023-03-23T10:58:09;98561.03;;;16.88;44.80
64362;BME280;50685;53.346;-6.296;2023-03-23T11:00:41;98566.81;;;16.70;46.21
64362;BME280;50685;53.346;-6.296;2023-03-23T11:05:50;98578.38;;;16.34;46.75
64362;BME280;50685;53.346;-6.296;2023-03-23T11:08:27;98568.06;;;16.03;47.52
64362;BME280;50685;53.346;-6.296;2023-03-23T11:11:07;98579.16;;;16.23;47.09
64362;BME280;50685;53.346;-6.296;2023-03-23T11:13:37;98570.28;;;16.47;46.80
64362;BME280;50685;53.346;-6.296;2023-03-23T11:16:04;98563.41;;;16.80;46.87
64362;BME280;50685;53.346;-6.296;2023-03-23T11:18:36;98565.88;;;16.83;45.47
64362;BME280;50685;53.346;-6.296;2023-03-23T11:21:02;98559.31;;;17.00;45.67
64362;BME280;50685;53.346;-6.296;2023-03-23T11:23:38;98570.50;;;17.05;46.18
64362;BME280;50685;53.346;-6.296;2023-03-23T11:29:24;98573.53;;;17.00;45.13
64362;BME280;50685;53.346;-6.296;2023-03-23T11:31:39;98567.41;;;16.98;44.93
64362;BME280;50685;53.346;-6.296;2023-03-23T11:37:07;98562.97;;;17.57;43.74
64362;BME280;50685;53.346;-6.296;2023-03-23T11:42:22;98563.75;;;17.24;42.44
64362;BME280;50685;53.346;-6.296;2023-03-23T11:44:51;98556.84;;;16.35;44.48
64362;BME280;50685;53.346;-6.296;2023-03-23T11:47:29;98567.47;;;15.87;46.01
64362;BME280;50685;53.346;-6.296;2023-03-23T11:50:08;98559.72;;;15.69;47.26
64362;BME280;50685;53.346;-6.296;2023-03-23T11:52:47;98554.41;;;15.82;46.87
64362;BME280;50685;53.346;-6.296;2023-03-23T11:55:30;98563.28;;;15.83;46.69
64362;BME280;50685;53.346;-6.296;2023-03-23T11:58:00;98557.72;;;15.86;47.27
64362;BME280;50685;53.346;-6.296;2023-03-23T12:00:25;98552.78;;;15.67;47.60
64362;BME280;50685;53.346;-6.296;2023-03-23T12:05:47;98548.28;;;15.54;46.25
64362;BME280;50685;53.346;-6.296;2023-03-23T12:13:39;98539.41;;;15.67;47.58
64362;BME280;50685;53.346;-6.296;2023-03-23T12:18:40;98532.22;;;16.19;47.44
64362;BME280;50685;53.346;-6.296;2023-03-23T12:26:39;98528.91;;;16.02;46.81
64362;BME280;50685;53.346;-6.296;2023-03-23T12:29:27;98537.25;;;16.11;46.60
64362;BME280;50685;53.346;-6.296;2023-03-23T12:42:16;98503.19;;;16.50;46.24
64362;BME280;50685;53.346;-6.296;2023-03-23T12:47:34;98486.94;;;16.53;44.76
64362;BME280;50685;53.346;-6.296;2023-03-23T12:50:11;98513.38;;;16.45;45.48
64362;BME280;50685;53.346;-6.296;2023-03-23T12:53:01;98502.44;;;16.48;46.11
64362;BME280;50685;53.346;-6.296;2023-03-23T12:55:39;98494.09;;;16.52;46.14
64362;BME280;50685;53.346;-6.296;2023-03-23T12:58:17;98518.16;;;16.77;45.13
64362;BME280;50685;53.346;-6.296;2023-03-23T13:03:18;98484.47;;;17.21;44.22
64362;BME280;50685;53.346;-6.296;2023-03-23T13:05:50;98483.03;;;17.40;43.39
64362;BME280;50685;53.346;-6.296;2023-03-23T13:08:29;98491.94;;;17.63;42.95
64362;BME280;50685;53.346;-6.296;2023-03-23T13:10:59;98469.88;;;17.93;42.56
64362;BME280;50685;53.346;-6.296;2023-03-23T13:13:39;98466.00;;;17.75;42.68
64362;BME280;50685;53.346;-6.296;2023-03-23T13:18:56;98479.97;;;17.22;43.23
64362;BME280;50685;53.346;-6.296;2023-03-23T13:21:30;98491.13;;;16.80;43.92
64362;BME280;50685;53.346;-6.296;2023-03-23T13:24:06;98481.91;;;16.48;44.67
64362;BME280;50685;53.346;-6.296;2023-03-23T13:26:37;98498.22;;;16.57;44.09
64362;BME280;50685;53.346;-6.296;2023-03-23T13:29:16;98478.63;;;17.05;42.83
64362;BME280;50685;53.346;-6.296;2023-03-23T13:31:45;98487.31;;;17.65;41.23
64362;BME280;50685;53.346;-6.296;2023-03-23T13:42:05;98483.41;;;18.47;38.80
64362;BME280;50685;53.346;-6.296;2023-03-23T13:49:46;98453.19;;;18.01;40.20
64362;BME280;50685;53.346;-6.296;2023-03-23T13:54:47;98439.31;;;17.39;41.38
64362;BME280;50685;53.346;-6.296;2023-03-23T13:57:21;98442.72;;;17.41;41.60
64362;BME280;50685;53.346;-6.296;2023-03-23T13:59:49;98448.56;;;17.69;41.65
64362;BME280;50685;53.346;-6.296;2023-03-23T14:02:34;98452.34;;;18.01;40.91
64362;BME280;50685;53.346;-6.296;2023-03-23T14:07:53;98447.97;;;17.54;41.31
64362;BME280;50685;53.346;-6.296;2023-03-23T14:10:24;98450.25;;;17.81;39.96
64362;BME280;50685;53.346;-6.296;2023-03-23T14:15:42;98433.09;;;18.28;38.68
64362;BME280;50685;53.346;-6.296;2023-03-23T14:18:40;98433.28;;;18.48;38.47
64362;BME280;50685;53.346;-6.296;2023-03-23T14:21:17;98435.00;;;18.49;37.94
64362;BME280;50685;53.346;-6.296;2023-03-23T14:23:49;98431.78;;;18.22;37.88
64362;BME280;50685;53.346;-6.296;2023-03-23T14:26:17;98419.50;;;18.41;38.04
64362;BME280;50685;53.346;-6.296;2023-03-23T14:28:57;98412.66;;;18.69;38.16
64362;BME280;50685;53.346;-6.296;2023-03-23T14:31:25;98402.81;;;19.22;37.47
64362;BME280;50685;53.346;-6.296;2023-03-23T14:33:51;98412.44;;;19.24;35.69
64362;BME280;50685;53.346;-6.296;2023-03-23T14:36:23;98414.38;;;19.13;36.45
64362;BME280;50685;53.346;-6.296;2023-03-23T14:38:55;98415.53;;;18.56;37.67
64362;BME280;50685;53.346;-6.296;2023-03-23T14:41:22;98418.44;;;18.00;38.93
64362;BME280;50685;53.346;-6.296;2023-03-23T14:43:47;98418.47;;;17.31;40.49
64362;BME280;50685;53.346;-6.296;2023-03-23T14:46:13;98409.56;;;17.08;41.28
64362;BME280;50685;53.346;-6.296;2023-03-23T14:48:41;98395.59;;;17.16;41.37
64362;BME280;50685;53.346;-6.296;2023-03-23T14:51:06;98419.59;;;16.82;42.05
64362;BME280;50685;53.346;-6.296;2023-03-23T14:53:38;98411.00;;;16.18;43.35
64362;BME280;50685;53.346;-6.296;2023-03-23T14:56:09;98384.28;;;15.94;44.84
64362;BME280;50685;53.346;-6.296;2023-03-23T14:58:36;98387.50;;;15.86;44.29
64362;BME280;50685;53.346;-6.296;2023-03-23T15:01:03;98386.66;;;16.10;44.01
64362;BME280;50685;53.346;-6.296;2023-03-23T15:03:34;98378.50;;;16.36;44.36
64362;BME280;50685;53.346;-6.296;2023-03-23T15:06:04;98402.94;;;16.43;43.80
64362;BME280;50685;53.346;-6.296;2023-03-23T15:08:33;98385.97;;;16.19;43.37
64362;BME280;50685;53.346;-6.296;2023-03-23T15:11:03;98363.16;;;16.02;43.48
64362;BME280;50685;53.346;-6.296;2023-03-23T15:13:29;98360.56;;;15.77;43.87
64362;BME280;50685;53.346;-6.296;2023-03-23T15:16:02;98367.03;;;15.61;44.42
64362;BME280;50685;53.346;-6.296;2023-03-23T15:18:34;98346.13;;;15.79;43.64
64362;BME280;50685;53.346;-6.296;2023-03-23T15:21:07;98367.91;;;16.34;42.77
64362;BME280;50685;53.346;-6.296;2023-03-23T15:23:33;98365.19;;;16.59;42.01
64362;BME280;50685;53.346;-6.296;2023-03-23T15:26:05;98381.41;;;16.44;41.87
64362;BME280;50685;53.346;-6.296;2023-03-23T15:28:31;98359.69;;;15.89;42.75
64362;BME280;50685;53.346;-6.296;2023-03-23T15:30:59;98343.91;;;15.36;44.03
64362;BME280;50685;53.346;-6.296;2023-03-23T15:33:25;98332.72;;;15.18;44.28
64362;BME280;50685;53.346;-6.296;2023-03-23T15:35:55;98347.19;;;15.02;44.91
64362;BME280;50685;53.346;-6.296;2023-03-23T15:38:24;98357.56;;;14.94;45.26
64362;BME280;50685;53.346;-6.296;2023-03-23T15:40:53;98350.22;;;14.85;48.41
64362;BME280;50685;53.346;-6.296;2023-03-23T15:43:26;98349.56;;;14.68;50.83
64362;BME280;50685;53.346;-6.296;2023-03-23T15:48:50;98362.50;;;14.34;52.20
64362;BME280;50685;53.346;-6.296;2023-03-23T15:51:20;98353.75;;;14.32;53.07
64362;BME280;50685;53.346;-6.296;2023-03-23T15:53:56;98344.38;;;14.39;55.33
64362;BME280;50685;53.346;-6.296;2023-03-23T16:05:48;98334.22;;;14.19;57.06
64362;BME280;50685;53.346;-6.296;2023-03-23T16:08:27;98335.06;;;14.19;54.40
64362;BME280;50685;53.346;-6.296;2023-03-23T17:16:38;98331.97;;;12.73;56.59
64362;BME280;50685;53.346;-6.296;2023-03-23T17:34:24;98316.13;;;12.57;57.03
64362;BME280;50685;53.346;-6.296;2023-03-23T17:36:52;98310.34;;;12.50;56.66
64362;BME280;50685;53.346;-6.296;2023-03-23T17:39:17;98315.91;;;12.45;56.78
64362;BME280;50685;53.346;-6.296;2023-03-23T17:41:42;98319.41;;;12.46;57.15
64362;BME280;50685;53.346;-6.296;2023-03-23T17:44:11;98303.16;;;12.36;56.20
64362;BME280;50685;53.346;-6.296;2023-03-23T17:46:36;98311.03;;;12.37;56.00
64362;BME280;50685;53.346;-6.296;2023-03-23T17:49:02;98312.69;;;12.40;55.59
64362;BME280;50685;53.346;-6.296;2023-03-23T17:51:28;98321.25;;;12.45;55.44
64362;BME280;50685;53.346;-6.296;2023-03-23T17:53:53;98310.97;;;12.39;54.92
64362;BME280;50685;53.346;-6.296;2023-03-23T17:56:18;98307.28;;;12.42;55.19
64362;BME280;50685;53.346;-6.296;2023-03-23T17:58:44;98309.44;;;12.35;55.28
64362;BME280;50685;53.346;-6.296;2023-03-23T18:01:10;98296.63;;;12.27;55.63
64362;BME280;50685;53.346;-6.296;2023-03-23T18:03:38;98296.97;;;12.21;56.72
64362;BME280;50685;53.346;-6.296;2023-03-23T18:06:07;98296.50;;;12.14;57.54
64362;BME280;50685;53.346;-6.296;2023-03-23T18:08:32;98279.03;;;12.10;57.71
64362;BME280;50685;53.346;-6.296;2023-03-23T18:10:58;98267.16;;;12.01;58.32
64362;BME280;50685;53.346;-6.296;2023-03-23T18:13:24;98284.91;;;12.01;58.75
64362;BME280;50685;53.346;-6.296;2023-03-23T18:15:53;98291.50;;;11.94;58.94
64362;BME280;50685;53.346;-6.296;2023-03-23T18:18:19;98273.31;;;11.86;59.93